PILOTS ONLINE: 230    ATC ONLINE: 37

KOTH - Southwest Oregon Regional Airport

Location

IATA OTH
City North Bend
Country  United States
Latitude 43° 25' 1" N
Longitude 124° 14' 45" W
Elevation 17 ft
Type Medium Airport

Runways

04/22 5321 ft / 150 ft
13/31 4471 ft / 150 ft

Weather

METAR
2014/07/23 07:35
KOTH 230735Z 15004KT 10SM FEW009 OVC070 14/14 A3010 RMK AO1
TAF
2014/07/23 06:54
TAF KOTH 230547Z 2306/2406 21005KT P6SM BKN009 OVC040 
     FM231200 21007KT 6SM -RA BR BKN006 BKN015 OVC035 
     FM231500 25009KT 4SM RA BR SCT006 OVC012 
     FM231900 25011G17KT P6SM -SHRA BKN020 BKN040 
     FM240000 26009KT P6SM FEW025

Outbound flights

Inbound flights